createdAt,value
2022-10-31T17:25:01.053Z,20.30
2022-10-31T17:27:50.804Z,20.20
2022-10-31T17:30:39.745Z,20.10
2022-10-31T17:33:29.136Z,20.00
2022-10-31T17:36:18.733Z,20.00
2022-10-31T17:39:10.020Z,19.90
2022-10-31T17:42:00.792Z,19.80
2022-10-31T17:47:38.974Z,19.80
2022-10-31T17:50:28.642Z,19.70
2022-10-31T17:53:18.083Z,19.60
2022-10-31T17:56:09.587Z,19.60
2022-10-31T17:59:00.276Z,19.60
2022-10-31T18:01:49.228Z,19.60
2022-10-31T18:04:38.747Z,19.40
2022-10-31T18:07:28.174Z,19.40
2022-10-31T18:10:17.675Z,19.50
2022-10-31T18:13:07.232Z,19.50
2022-10-31T18:15:59.009Z,19.50
2022-10-31T18:18:52.528Z,19.50
2022-10-31T18:21:42.040Z,19.40
2022-10-31T18:24:30.701Z,19.30
2022-10-31T18:27:19.726Z,19.30
2022-10-31T18:30:10.874Z,19.30
2022-10-31T18:33:01.785Z,19.20
2022-10-31T18:35:50.790Z,19.20
2022-10-31T18:38:41.139Z,19.10
2022-10-31T18:41:30.160Z,19.20
2022-10-31T18:44:20.309Z,19.10
2022-10-31T18:47:09.389Z,19.00
2022-10-31T18:50:00.475Z,18.90
2022-10-31T18:52:49.572Z,18.80
2022-10-31T18:55:45.400Z,18.70
2022-10-31T18:58:39.431Z,18.70
2022-10-31T19:01:28.430Z,18.40
2022-10-31T19:04:18.935Z,18.30
2022-10-31T19:07:09.770Z,18.40
2022-10-31T19:09:59.051Z,18.40
2022-10-31T19:12:47.894Z,18.00
2022-10-31T19:15:37.763Z,18.00
2022-10-31T19:18:27.381Z,18.00
2022-10-31T19:21:17.957Z,18.20
2022-10-31T19:24:10.591Z,18.10
2022-10-31T19:27:01.101Z,18.00
2022-10-31T19:29:49.993Z,18.10
2022-10-31T19:32:39.700Z,18.30
2022-10-31T19:35:28.799Z,18.40
2022-10-31T19:38:17.701Z,18.50
2022-10-31T19:41:10.508Z,18.60
2022-10-31T19:44:01.757Z,18.50
2022-10-31T19:46:53.317Z,18.20
2022-10-31T19:49:43.382Z,18.20
2022-10-31T19:52:35.886Z,18.20
2022-10-31T19:55:25.189Z,18.10
2022-10-31T19:58:16.332Z,18.20
2022-10-31T20:01:09.410Z,18.20
2022-10-31T20:03:58.797Z,18.20
2022-10-31T20:06:48.192Z,18.20
2022-10-31T20:09:37.349Z,18.20
2022-10-31T20:12:26.493Z,18.20
2022-10-31T20:15:17.641Z,18.20
2022-10-31T20:18:06.913Z,18.20
2022-10-31T20:20:57.737Z,18.20
2022-10-31T20:23:49.179Z,18.10
2022-10-31T20:26:39.850Z,18.10
2022-10-31T20:29:28.843Z,18.00
2022-10-31T20:32:21.202Z,18.00
2022-10-31T20:35:11.240Z,18.00
2022-10-31T20:38:00.898Z,18.00
2022-10-31T20:40:50.158Z,17.90
2022-10-31T20:43:40.868Z,17.90
2022-10-31T20:46:30.725Z,17.80
2022-10-31T20:49:21.275Z,17.70
2022-10-31T20:52:10.327Z,17.70
2022-10-31T20:55:00.261Z,17.80
2022-10-31T20:57:49.344Z,17.80
2022-10-31T21:00:39.431Z,17.80
2022-10-31T21:03:28.980Z,17.90
2022-10-31T21:06:21.432Z,17.80
2022-10-31T21:09:10.826Z,17.80
2022-10-31T21:12:00.438Z,17.80
2022-10-31T21:14:49.846Z,17.70
2022-10-31T21:17:39.211Z,17.70
2022-10-31T21:20:28.293Z,17.80
2022-10-31T21:23:19.772Z,17.60
2022-10-31T21:26:10.158Z,17.40
2022-10-31T21:29:01.131Z,17.40
2022-10-31T21:31:50.778Z,17.40
2022-10-31T21:34:39.850Z,17.40
2022-10-31T21:37:28.795Z,17.40
2022-10-31T21:40:19.592Z,17.50
2022-10-31T21:43:08.671Z,17.40
2022-10-31T21:45:58.265Z,17.40
2022-10-31T21:48:47.854Z,17.40
2022-10-31T21:51:37.935Z,17.40
2022-10-31T21:54:30.458Z,17.40
2022-10-31T22:00:13.127Z,17.40
